sensor_id;sensor_type;location;lat;lon;timestamp;P1;durP1;ratioP1;P2;durP2;ratioP2
78871;SDS011;68247;43.514;1.502;2023-05-10T00:02:07;19.77;;;4.20;;
78871;SDS011;68247;43.514;1.502;2023-05-10T00:04:32;16.47;;;3.60;;
78871;SDS011;68247;43.514;1.502;2023-05-10T00:06:58;12.38;;;3.25;;
78871;SDS011;68247;43.514;1.502;2023-05-10T00:09:23;19.73;;;3.80;;
78871;SDS011;68247;43.514;1.502;2023-05-10T00:11:49;23.60;;;4.00;;
78871;SDS011;68247;43.514;1.502;2023-05-10T00:14:14;17.27;;;4.03;;
78871;SDS011;68247;43.514;1.502;2023-05-10T00:16:39;23.90;;;3.60;;
78871;SDS011;68247;43.514;1.502;2023-05-10T00:19:05;17.20;;;4.60;;
78871;SDS011;68247;43.514;1.502;2023-05-10T00:21:31;18.37;;;3.97;;
78871;SDS011;68247;43.514;1.502;2023-05-10T00:23:57;15.82;;;3.75;;
78871;SDS011;68247;43.514;1.502;2023-05-10T00:26:22;15.20;;;3.90;;
78871;SDS011;68247;43.514;1.502;2023-05-10T00:28:48;12.93;;;3.17;;
78871;SDS011;68247;43.514;1.502;2023-05-10T00:31:13;16.97;;;4.20;;
78871;SDS011;68247;43.514;1.502;2023-05-10T00:33:39;17.27;;;4.03;;
78871;SDS011;68247;43.514;1.502;2023-05-10T00:36:05;23.77;;;3.77;;
78871;SDS011;68247;43.514;1.502;2023-05-10T00:38:32;23.77;;;4.43;;
78871;SDS011;68247;43.514;1.502;2023-05-10T00:40:58;17.75;;;4.20;;
78871;SDS011;68247;43.514;1.502;2023-05-10T00:43:23;17.77;;;4.23;;
78871;SDS011;68247;43.514;1.502;2023-05-10T00:45:49;16.50;;;3.60;;
78871;SDS011;68247;43.514;1.502;2023-05-10T00:48:14;18.77;;;3.65;;
78871;SDS011;68247;43.514;1.502;2023-05-10T00:50:40;18.30;;;3.43;;
78871;SDS011;68247;43.514;1.502;2023-05-10T00:53:05;18.83;;;3.20;;
78871;SDS011;68247;43.514;1.502;2023-05-10T00:55:31;28.40;;;4.23;;
78871;SDS011;68247;43.514;1.502;2023-05-10T00:57:57;18.87;;;3.70;;
78871;SDS011;68247;43.514;1.502;2023-05-10T01:00:22;16.97;;;3.67;;
78871;SDS011;68247;43.514;1.502;2023-05-10T01:02:48;16.03;;;3.43;;
78871;SDS011;68247;43.514;1.502;2023-05-10T01:05:14;22.63;;;3.42;;
78871;SDS011;68247;43.514;1.502;2023-05-10T01:07:40;19.63;;;4.57;;
78871;SDS011;68247;43.514;1.502;2023-05-10T01:10:06;12.55;;;3.72;;
78871;SDS011;68247;43.514;1.502;2023-05-10T01:12:33;17.08;;;3.55;;
78871;SDS011;68247;43.514;1.502;2023-05-10T01:15:00;13.23;;;3.85;;
78871;SDS011;68247;43.514;1.502;2023-05-10T01:17:26;14.80;;;3.80;;
78871;SDS011;68247;43.514;1.502;2023-05-10T01:19:52;14.88;;;3.30;;
78871;SDS011;68247;43.514;1.502;2023-05-10T01:34:01;11.68;;;3.15;;
78871;SDS011;68247;43.514;1.502;2023-05-10T01:39:05;13.13;;;2.72;;
78871;SDS011;68247;43.514;1.502;2023-05-10T01:41:40;19.85;;;3.60;;
78871;SDS011;68247;43.514;1.502;2023-05-10T01:44:23;12.17;;;3.13;;
78871;SDS011;68247;43.514;1.502;2023-05-10T01:47:12;15.15;;;2.65;;
78871;SDS011;68247;43.514;1.502;2023-05-10T01:49:45;8.65;;;2.28;;
78871;SDS011;68247;43.514;1.502;2023-05-10T01:52:14;15.00;;;2.72;;
78871;SDS011;68247;43.514;1.502;2023-05-10T01:54:44;11.68;;;2.60;;
78871;SDS011;68247;43.514;1.502;2023-05-10T01:57:14;14.37;;;2.73;;
78871;SDS011;68247;43.514;1.502;2023-05-10T01:59:43;14.98;;;3.30;;
78871;SDS011;68247;43.514;1.502;2023-05-10T02:02:08;11.68;;;2.70;;
78871;SDS011;68247;43.514;1.502;2023-05-10T02:04:37;15.18;;;3.60;;
78871;SDS011;68247;43.514;1.502;2023-05-10T02:07:03;13.60;;;2.67;;
78871;SDS011;68247;43.514;1.502;2023-05-10T02:09:30;16.83;;;3.00;;
78871;SDS011;68247;43.514;1.502;2023-05-10T02:11:57;19.40;;;3.50;;
78871;SDS011;68247;43.514;1.502;2023-05-10T02:14:25;15.10;;;3.65;;
78871;SDS011;68247;43.514;1.502;2023-05-10T02:16:52;12.38;;;2.85;;
78871;SDS011;68247;43.514;1.502;2023-05-10T02:19:19;11.13;;;2.83;;
78871;SDS011;68247;43.514;1.502;2023-05-10T02:21:45;14.27;;;2.77;;
78871;SDS011;68247;43.514;1.502;2023-05-10T02:24:11;12.95;;;3.45;;
78871;SDS011;68247;43.514;1.502;2023-05-10T02:26:37;14.63;;;3.22;;
78871;SDS011;68247;43.514;1.502;2023-05-10T02:29:03;12.45;;;2.45;;
78871;SDS011;68247;43.514;1.502;2023-05-10T02:31:33;11.48;;;3.08;;
78871;SDS011;68247;43.514;1.502;2023-05-10T02:33:58;15.93;;;2.80;;
78871;SDS011;68247;43.514;1.502;2023-05-10T02:36:25;15.13;;;2.63;;
78871;SDS011;68247;43.514;1.502;2023-05-10T02:38:52;19.27;;;3.75;;
78871;SDS011;68247;43.514;1.502;2023-05-10T02:41:18;18.23;;;2.92;;
78871;SDS011;68247;43.514;1.502;2023-05-10T02:43:46;13.80;;;2.70;;
78871;SDS011;68247;43.514;1.502;2023-05-10T02:46:12;19.40;;;3.47;;
78871;SDS011;68247;43.514;1.502;2023-05-10T02:48:37;16.93;;;3.80;;
78871;SDS011;68247;43.514;1.502;2023-05-10T02:51:04;15.32;;;3.75;;
78871;SDS011;68247;43.514;1.502;2023-05-10T02:53:31;21.02;;;3.75;;
78871;SDS011;68247;43.514;1.502;2023-05-10T02:55:58;20.47;;;3.93;;
78871;SDS011;68247;43.514;1.502;2023-05-10T02:58:25;18.52;;;4.00;;
78871;SDS011;68247;43.514;1.502;2023-05-10T03:00:51;17.10;;;3.47;;
78871;SDS011;68247;43.514;1.502;2023-05-10T03:03:17;18.30;;;3.73;;
78871;SDS011;68247;43.514;1.502;2023-05-10T03:05:42;16.33;;;3.50;;
78871;SDS011;68247;43.514;1.502;2023-05-10T03:08:08;12.25;;;3.08;;
78871;SDS011;68247;43.514;1.502;2023-05-10T03:10:33;15.67;;;3.43;;
78871;SDS011;68247;43.514;1.502;2023-05-10T03:18:23;16.58;;;3.45;;
78871;SDS011;68247;43.514;1.502;2023-05-10T03:20:57;14.80;;;3.40;;
78871;SDS011;68247;43.514;1.502;2023-05-10T03:23:27;13.20;;;3.45;;
78871;SDS011;68247;43.514;1.502;2023-05-10T03:25:55;16.33;;;3.95;;
78871;SDS011;68247;43.514;1.502;2023-05-10T03:28:21;9.65;;;2.50;;
78871;SDS011;68247;43.514;1.502;2023-05-10T03:30:50;5.25;;;1.77;;
78871;SDS011;68247;43.514;1.502;2023-05-10T03:33:17;5.70;;;1.43;;
78871;SDS011;68247;43.514;1.502;2023-05-10T03:35:43;1.35;;;0.90;;
78871;SDS011;68247;43.514;1.502;2023-05-10T03:38:10;0.70;;;0.30;;
78871;SDS011;68247;43.514;1.502;2023-05-10T03:40:36;2.80;;;0.77;;
78871;SDS011;68247;43.514;1.502;2023-05-10T03:43:02;1.52;;;0.98;;
78871;SDS011;68247;43.514;1.502;2023-05-10T03:45:27;7.33;;;1.07;;
78871;SDS011;68247;43.514;1.502;2023-05-10T03:47:53;2.33;;;0.87;;
78871;SDS011;68247;43.514;1.502;2023-05-10T03:50:19;1.10;;;0.73;;
78871;SDS011;68247;43.514;1.502;2023-05-10T03:52:45;0.60;;;0.20;;
78871;SDS011;68247;43.514;1.502;2023-05-10T03:55:10;0.90;;;0.40;;
78871;SDS011;68247;43.514;1.502;2023-05-10T03:57:36;0.95;;;0.35;;
78871;SDS011;68247;43.514;1.502;2023-05-10T04:00:02;0.83;;;0.30;;
78871;SDS011;68247;43.514;1.502;2023-05-10T04:02:29;2.30;;;0.70;;
78871;SDS011;68247;43.514;1.502;2023-05-10T04:04:55;1.00;;;0.50;;
78871;SDS011;68247;43.514;1.502;2023-05-10T04:07:21;1.00;;;0.47;;
78871;SDS011;68247;43.514;1.502;2023-05-10T04:09:46;0.90;;;0.40;;
78871;SDS011;68247;43.514;1.502;2023-05-10T04:12:12;1.57;;;0.60;;
78871;SDS011;68247;43.514;1.502;2023-05-10T04:14:37;1.30;;;0.90;;
78871;SDS011;68247;43.514;1.502;2023-05-10T04:17:02;2.17;;;1.53;;
78871;SDS011;68247;43.514;1.502;2023-05-10T04:19:28;0.70;;;0.30;;
78871;SDS011;68247;43.514;1.502;2023-05-10T04:21:55;1.00;;;0.40;;
78871;SDS011;68247;43.514;1.502;2023-05-10T04:24:20;0.98;;;0.40;;
78871;SDS011;68247;43.514;1.502;2023-05-10T04:26:46;1.20;;;0.60;;
78871;SDS011;68247;43.514;1.502;2023-05-10T04:29:11;2.23;;;1.43;;
78871;SDS011;68247;43.514;1.502;2023-05-10T04:31:36;0.90;;;0.40;;
78871;SDS011;68247;43.514;1.502;2023-05-10T04:34:02;1.27;;;0.70;;
78871;SDS011;68247;43.514;1.502;2023-05-10T04:36:27;2.00;;;1.10;;
78871;SDS011;68247;43.514;1.502;2023-05-10T04:38:53;1.88;;;0.80;;
78871;SDS011;68247;43.514;1.502;2023-05-10T04:41:19;4.10;;;0.93;;
78871;SDS011;68247;43.514;1.502;2023-05-10T04:43:45;3.20;;;0.70;;
78871;SDS011;68247;43.514;1.502;2023-05-10T04:46:11;1.10;;;0.50;;
78871;SDS011;68247;43.514;1.502;2023-05-10T04:48:36;1.65;;;0.75;;
78871;SDS011;68247;43.514;1.502;2023-05-10T04:51:02;6.77;;;1.17;;
78871;SDS011;68247;43.514;1.502;2023-05-10T04:53:28;1.00;;;0.47;;
78871;SDS011;68247;43.514;1.502;2023-05-10T04:55:54;1.40;;;0.83;;
78871;SDS011;68247;43.514;1.502;2023-05-10T04:58:20;1.20;;;0.60;;
78871;SDS011;68247;43.514;1.502;2023-05-10T05:00:45;2.60;;;1.20;;
78871;SDS011;68247;43.514;1.502;2023-05-10T05:03:11;0.97;;;0.40;;
78871;SDS011;68247;43.514;1.502;2023-05-10T05:05:36;1.10;;;0.50;;
78871;SDS011;68247;43.514;1.502;2023-05-10T05:08:02;1.10;;;0.50;;
78871;SDS011;68247;43.514;1.502;2023-05-10T05:10:28;4.50;;;1.67;;
78871;SDS011;68247;43.514;1.502;2023-05-10T05:12:53;1.10;;;0.50;;
78871;SDS011;68247;43.514;1.502;2023-05-10T05:15:19;0.93;;;0.40;;
78871;SDS011;68247;43.514;1.502;2023-05-10T05:17:44;1.07;;;0.50;;
78871;SDS011;68247;43.514;1.502;2023-05-10T05:20:10;1.00;;;0.60;;
78871;SDS011;68247;43.514;1.502;2023-05-10T05:22:36;1.83;;;1.23;;
78871;SDS011;68247;43.514;1.502;2023-05-10T05:25:02;1.40;;;0.82;;
78871;SDS011;68247;43.514;1.502;2023-05-10T05:27:28;1.10;;;0.60;;
78871;SDS011;68247;43.514;1.502;2023-05-10T05:29:54;1.20;;;0.60;;
78871;SDS011;68247;43.514;1.502;2023-05-10T05:32:20;0.97;;;0.53;;
78871;SDS011;68247;43.514;1.502;2023-05-10T05:34:46;1.17;;;0.65;;
78871;SDS011;68247;43.514;1.502;2023-05-10T05:37:19;1.00;;;0.50;;
78871;SDS011;68247;43.514;1.502;2023-05-10T05:39:46;1.00;;;0.45;;
78871;SDS011;68247;43.514;1.502;2023-05-10T05:42:12;1.17;;;0.85;;
78871;SDS011;68247;43.514;1.502;2023-05-10T05:44:38;1.00;;;0.47;;
78871;SDS011;68247;43.514;1.502;2023-05-10T05:47:04;1.23;;;0.77;;
78871;SDS011;68247;43.514;1.502;2023-05-10T05:49:30;0.90;;;0.40;;
78871;SDS011;68247;43.514;1.502;2023-05-10T05:52:02;2.30;;;1.27;;
78871;SDS011;68247;43.514;1.502;2023-05-10T05:54:28;0.88;;;0.40;;
78871;SDS011;68247;43.514;1.502;2023-05-10T05:56:55;1.10;;;0.50;;
78871;SDS011;68247;43.514;1.502;2023-05-10T05:59:22;1.25;;;0.98;;
78871;SDS011;68247;43.514;1.502;2023-05-10T06:01:47;1.27;;;0.73;;
78871;SDS011;68247;43.514;1.502;2023-05-10T06:04:13;1.00;;;0.43;;
78871;SDS011;68247;43.514;1.502;2023-05-10T06:06:38;0.90;;;0.40;;
78871;SDS011;68247;43.514;1.502;2023-05-10T06:09:04;0.80;;;0.30;;
78871;SDS011;68247;43.514;1.502;2023-05-10T06:11:29;1.27;;;0.87;;
78871;SDS011;68247;43.514;1.502;2023-05-10T06:13:57;0.90;;;0.40;;
78871;SDS011;68247;43.514;1.502;2023-05-10T06:16:23;1.17;;;0.57;;
78871;SDS011;68247;43.514;1.502;2023-05-10T06:18:48;2.03;;;0.93;;
78871;SDS011;68247;43.514;1.502;2023-05-10T06:21:13;1.93;;;0.80;;
78871;SDS011;68247;43.514;1.502;2023-05-10T06:23:40;8.85;;;0.70;;
78871;SDS011;68247;43.514;1.502;2023-05-10T06:26:05;1.10;;;0.50;;
78871;SDS011;68247;43.514;1.502;2023-05-10T06:28:30;1.93;;;1.73;;
78871;SDS011;68247;43.514;1.502;2023-05-10T06:30:57;2.17;;;1.17;;
78871;SDS011;68247;43.514;1.502;2023-05-10T06:33:22;0.80;;;0.50;;
78871;SDS011;68247;43.514;1.502;2023-05-10T06:35:48;1.73;;;0.67;;
78871;SDS011;68247;43.514;1.502;2023-05-10T06:38:13;1.07;;;0.50;;
78871;SDS011;68247;43.514;1.502;2023-05-10T06:40:42;1.27;;;0.70;;
78871;SDS011;68247;43.514;1.502;2023-05-10T06:43:07;6.20;;;1.27;;
78871;SDS011;68247;43.514;1.502;2023-05-10T06:45:33;3.72;;;0.90;;
78871;SDS011;68247;43.514;1.502;2023-05-10T06:47:58;1.53;;;0.83;;
78871;SDS011;68247;43.514;1.502;2023-05-10T06:50:24;0.90;;;0.40;;
78871;SDS011;68247;43.514;1.502;2023-05-10T06:52:49;4.60;;;0.70;;
78871;SDS011;68247;43.514;1.502;2023-05-10T06:55:15;1.10;;;0.60;;
78871;SDS011;68247;43.514;1.502;2023-05-10T06:57:40;1.63;;;0.80;;
78871;SDS011;68247;43.514;1.502;2023-05-10T07:00:06;1.33;;;0.80;;
78871;SDS011;68247;43.514;1.502;2023-05-10T07:02:32;1.83;;;1.47;;
78871;SDS011;68247;43.514;1.502;2023-05-10T07:04:58;1.10;;;0.50;;
78871;SDS011;68247;43.514;1.502;2023-05-10T07:07:23;1.50;;;1.33;;
78871;SDS011;68247;43.514;1.502;2023-05-10T07:09:49;1.00;;;0.50;;
78871;SDS011;68247;43.514;1.502;2023-05-10T07:12:17;0.75;;;0.35;;
78871;SDS011;68247;43.514;1.502;2023-05-10T07:14:42;1.10;;;0.83;;
78871;SDS011;68247;43.514;1.502;2023-05-10T07:17:08;1.33;;;0.70;;
78871;SDS011;68247;43.514;1.502;2023-05-10T07:19:34;25.53;;;2.00;;
78871;SDS011;68247;43.514;1.502;2023-05-10T07:21:59;1.05;;;0.50;;
78871;SDS011;68247;43.514;1.502;2023-05-10T07:24:25;0.97;;;0.40;;
78871;SDS011;68247;43.514;1.502;2023-05-10T07:26:50;1.10;;;0.50;;
78871;SDS011;68247;43.514;1.502;2023-05-10T07:29:15;15.53;;;1.17;;
78871;SDS011;68247;43.514;1.502;2023-05-10T07:31:41;5.20;;;2.58;;
78871;SDS011;68247;43.514;1.502;2023-05-10T07:34:07;3.63;;;1.10;;
78871;SDS011;68247;43.514;1.502;2023-05-10T07:36:33;1.00;;;0.50;;
78871;SDS011;68247;43.514;1.502;2023-05-10T07:38:59;1.30;;;0.90;;
78871;SDS011;68247;43.514;1.502;2023-05-10T07:41:24;0.93;;;0.43;;
78871;SDS011;68247;43.514;1.502;2023-05-10T07:43:50;5.88;;;1.67;;
78871;SDS011;68247;43.514;1.502;2023-05-10T07:46:16;8.60;;;1.20;;
78871;SDS011;68247;43.514;1.502;2023-05-10T07:48:41;10.60;;;1.53;;
78871;SDS011;68247;43.514;1.502;2023-05-10T07:51:07;3.53;;;1.20;;
78871;SDS011;68247;43.514;1.502;2023-05-10T07:53:34;10.67;;;1.90;;
78871;SDS011;68247;43.514;1.502;2023-05-10T07:56:19;7.63;;;1.42;;
78871;SDS011;68247;43.514;1.502;2023-05-10T07:58:54;8.27;;;1.67;;
78871;SDS011;68247;43.514;1.502;2023-05-10T08:01:26;13.40;;;2.37;;
78871;SDS011;68247;43.514;1.502;2023-05-10T08:03:52;10.02;;;2.30;;
78871;SDS011;68247;43.514;1.502;2023-05-10T08:06:18;13.38;;;3.10;;
78871;SDS011;68247;43.514;1.502;2023-05-10T08:08:47;7.95;;;2.35;;
78871;SDS011;68247;43.514;1.502;2023-05-10T08:11:18;10.60;;;2.50;;
78871;SDS011;68247;43.514;1.502;2023-05-10T08:13:45;10.47;;;2.27;;
78871;SDS011;68247;43.514;1.502;2023-05-10T08:16:11;3.97;;;1.40;;
78871;SDS011;68247;43.514;1.502;2023-05-10T08:18:37;13.20;;;2.53;;
78871;SDS011;68247;43.514;1.502;2023-05-10T08:21:03;18.20;;;2.10;;
78871;SDS011;68247;43.514;1.502;2023-05-10T08:23:28;12.23;;;2.45;;
78871;SDS011;68247;43.514;1.502;2023-05-10T08:25:53;11.93;;;2.83;;
78871;SDS011;68247;43.514;1.502;2023-05-10T08:28:19;13.30;;;3.10;;
78871;SDS011;68247;43.514;1.502;2023-05-10T08:30:44;9.27;;;2.00;;
78871;SDS011;68247;43.514;1.502;2023-05-10T08:33:10;17.30;;;4.23;;
78871;SDS011;68247;43.514;1.502;2023-05-10T08:35:35;21.67;;;8.90;;
78871;SDS011;68247;43.514;1.502;2023-05-10T08:38:01;15.30;;;3.00;;
78871;SDS011;68247;43.514;1.502;2023-05-10T08:40:26;17.07;;;3.87;;
78871;SDS011;68247;43.514;1.502;2023-05-10T08:43:04;12.45;;;3.10;;
78871;SDS011;68247;43.514;1.502;2023-05-10T08:45:32;19.90;;;2.80;;
78871;SDS011;68247;43.514;1.502;2023-05-10T08:47:59;11.88;;;2.63;;
78871;SDS011;68247;43.514;1.502;2023-05-10T08:50:26;10.68;;;2.03;;
78871;SDS011;68247;43.514;1.502;2023-05-10T08:52:52;11.52;;;2.53;;
78871;SDS011;68247;43.514;1.502;2023-05-10T08:55:21;9.80;;;1.97;;
78871;SDS011;68247;43.514;1.502;2023-05-10T08:57:48;13.63;;;2.83;;
78871;SDS011;68247;43.514;1.502;2023-05-10T09:00:14;12.68;;;2.70;;
78871;SDS011;68247;43.514;1.502;2023-05-10T09:02:40;12.07;;;2.80;;
78871;SDS011;68247;43.514;1.502;2023-05-10T09:05:07;12.73;;;3.67;;
78871;SDS011;68247;43.514;1.502;2023-05-10T09:07:32;13.20;;;2.67;;
78871;SDS011;68247;43.514;1.502;2023-05-10T09:09:58;15.37;;;2.50;;
78871;SDS011;68247;43.514;1.502;2023-05-10T09:12:23;13.45;;;2.50;;
78871;SDS011;68247;43.514;1.502;2023-05-10T09:14:49;12.00;;;2.30;;
78871;SDS011;68247;43.514;1.502;2023-05-10T09:17:15;11.23;;;2.42;;
78871;SDS011;68247;43.514;1.502;2023-05-10T09:19:41;16.53;;;2.10;;
78871;SDS011;68247;43.514;1.502;2023-05-10T09:22:06;7.30;;;2.03;;
78871;SDS011;68247;43.514;1.502;2023-05-10T09:24:32;14.00;;;1.98;;
78871;SDS011;68247;43.514;1.502;2023-05-10T09:26:57;9.73;;;1.90;;
78871;SDS011;68247;43.514;1.502;2023-05-10T09:29:26;10.43;;;2.28;;
78871;SDS011;68247;43.514;1.502;2023-05-10T09:31:51;8.63;;;2.27;;
78871;SDS011;68247;43.514;1.502;2023-05-10T09:34:20;10.35;;;2.28;;
78871;SDS011;68247;43.514;1.502;2023-05-10T09:36:54;9.43;;;2.10;;
78871;SDS011;68247;43.514;1.502;2023-05-10T09:39:34;12.80;;;2.95;;
78871;SDS011;68247;43.514;1.502;2023-05-10T09:42:01;8.20;;;2.10;;
78871;SDS011;68247;43.514;1.502;2023-05-10T09:44:28;10.25;;;1.80;;
78871;SDS011;68247;43.514;1.502;2023-05-10T09:46:54;9.43;;;2.35;;
78871;SDS011;68247;43.514;1.502;2023-05-10T09:49:23;8.23;;;2.10;;
78871;SDS011;68247;43.514;1.502;2023-05-10T09:52:05;9.13;;;1.65;;
78871;SDS011;68247;43.514;1.502;2023-05-10T09:54:31;12.47;;;2.70;;
78871;SDS011;68247;43.514;1.502;2023-05-10T09:56:57;14.05;;;2.15;;
78871;SDS011;68247;43.514;1.502;2023-05-10T09:59:25;11.77;;;2.40;;
78871;SDS011;68247;43.514;1.502;2023-05-10T10:01:52;7.85;;;2.05;;
78871;SDS011;68247;43.514;1.502;2023-05-10T10:04:20;10.20;;;2.17;;
78871;SDS011;68247;43.514;1.502;2023-05-10T10:06:57;7.65;;;1.45;;
78871;SDS011;68247;43.514;1.502;2023-05-10T10:09:27;9.32;;;2.10;;
78871;SDS011;68247;43.514;1.502;2023-05-10T10:11:53;11.27;;;2.03;;
78871;SDS011;68247;43.514;1.502;2023-05-10T10:14:21;10.75;;;2.08;;
78871;SDS011;68247;43.514;1.502;2023-05-10T10:16:49;10.68;;;1.92;;
78871;SDS011;68247;43.514;1.502;2023-05-10T10:19:15;8.88;;;2.40;;
78871;SDS011;68247;43.514;1.502;2023-05-10T10:21:40;10.57;;;2.30;;
78871;SDS011;68247;43.514;1.502;2023-05-10T10:24:06;10.63;;;2.00;;
78871;SDS011;68247;43.514;1.502;2023-05-10T10:26:34;9.90;;;2.20;;
78871;SDS011;68247;43.514;1.502;2023-05-10T10:34:36;5.20;;;1.58;;
78871;SDS011;68247;43.514;1.502;2023-05-10T10:37:05;9.75;;;1.52;;
78871;SDS011;68247;43.514;1.502;2023-05-10T10:39:31;6.50;;;1.30;;
78871;SDS011;68247;43.514;1.502;2023-05-10T10:41:57;8.70;;;1.65;;
78871;SDS011;68247;43.514;1.502;2023-05-10T10:44:36;6.15;;;1.25;;
78871;SDS011;68247;43.514;1.502;2023-05-10T10:52:13;5.43;;;1.30;;
78871;SDS011;68247;43.514;1.502;2023-05-10T10:55:01;7.65;;;1.42;;
78871;SDS011;68247;43.514;1.502;2023-05-10T11:05:37;7.03;;;1.85;;
78871;SDS011;68247;43.514;1.502;2023-05-10T11:10:49;10.13;;;2.13;;
78871;SDS011;68247;43.514;1.502;2023-05-10T11:13:16;7.45;;;1.85;;
78871;SDS011;68247;43.514;1.502;2023-05-10T11:15:52;5.60;;;1.55;;
78871;SDS011;68247;43.514;1.502;2023-05-10T11:18:19;8.18;;;1.80;;
78871;SDS011;68247;43.514;1.502;2023-05-10T11:21:05;6.07;;;2.00;;
78871;SDS011;68247;43.514;1.502;2023-05-10T11:23:48;7.57;;;1.40;;
78871;SDS011;68247;43.514;1.502;2023-05-10T11:26:14;7.82;;;1.70;;
78871;SDS011;68247;43.514;1.502;2023-05-10T11:28:43;7.83;;;1.70;;
78871;SDS011;68247;43.514;1.502;2023-05-10T11:31:09;7.75;;;1.67;;
78871;SDS011;68247;43.514;1.502;2023-05-10T11:33:45;9.93;;;2.00;;
78871;SDS011;68247;43.514;1.502;2023-05-10T11:36:14;5.93;;;1.30;;
78871;SDS011;68247;43.514;1.502;2023-05-10T11:38:40;9.80;;;2.03;;
78871;SDS011;68247;43.514;1.502;2023-05-10T11:41:07;7.22;;;2.08;;
78871;SDS011;68247;43.514;1.502;2023-05-10T11:43:34;8.32;;;2.25;;
78871;SDS011;68247;43.514;1.502;2023-05-10T11:46:01;11.13;;;2.30;;
78871;SDS011;68247;43.514;1.502;2023-05-10T11:48:29;8.93;;;1.85;;
78871;SDS011;68247;43.514;1.502;2023-05-10T11:50:54;10.13;;;2.20;;
78871;SDS011;68247;43.514;1.502;2023-05-10T11:53:22;7.90;;;1.70;;
78871;SDS011;68247;43.514;1.502;2023-05-10T11:55:47;8.40;;;2.03;;
78871;SDS011;68247;43.514;1.502;2023-05-10T11:58:13;8.63;;;1.65;;
78871;SDS011;68247;43.514;1.502;2023-05-10T12:00:40;7.30;;;1.85;;
78871;SDS011;68247;43.514;1.502;2023-05-10T12:03:06;7.27;;;1.73;;
78871;SDS011;68247;43.514;1.502;2023-05-10T12:05:32;6.53;;;1.60;;
78871;SDS011;68247;43.514;1.502;2023-05-10T12:08:14;5.72;;;1.08;;
78871;SDS011;68247;43.514;1.502;2023-05-10T12:10:40;6.13;;;1.25;;
78871;SDS011;68247;43.514;1.502;2023-05-10T12:13:10;3.80;;;1.03;;
78871;SDS011;68247;43.514;1.502;2023-05-10T12:15:36;6.43;;;1.23;;
78871;SDS011;68247;43.514;1.502;2023-05-10T12:18:02;4.10;;;1.30;;
78871;SDS011;68247;43.514;1.502;2023-05-10T12:20:27;3.25;;;1.50;;
78871;SDS011;68247;43.514;1.502;2023-05-10T12:22:57;6.63;;;1.70;;
78871;SDS011;68247;43.514;1.502;2023-05-10T12:25:24;4.00;;;1.00;;
78871;SDS011;68247;43.514;1.502;2023-05-10T12:27:55;6.60;;;1.70;;
78871;SDS011;68247;43.514;1.502;2023-05-10T12:30:22;5.80;;;1.33;;
78871;SDS011;68247;43.514;1.502;2023-05-10T12:32:49;4.75;;;1.30;;
78871;SDS011;68247;43.514;1.502;2023-05-10T12:35:15;4.97;;;1.33;;
78871;SDS011;68247;43.514;1.502;2023-05-10T12:37:42;2.95;;;1.05;;
78871;SDS011;68247;43.514;1.502;2023-05-10T12:40:08;6.78;;;1.50;;
78871;SDS011;68247;43.514;1.502;2023-05-10T12:42:35;7.07;;;1.50;;
78871;SDS011;68247;43.514;1.502;2023-05-10T12:45:02;10.70;;;2.22;;
78871;SDS011;68247;43.514;1.502;2023-05-10T12:47:28;6.70;;;2.00;;
78871;SDS011;68247;43.514;1.502;2023-05-10T12:49:53;8.38;;;1.55;;
78871;SDS011;68247;43.514;1.502;2023-05-10T12:52:19;6.10;;;1.60;;
78871;SDS011;68247;43.514;1.502;2023-05-10T12:54:45;7.27;;;2.37;;
78871;SDS011;68247;43.514;1.502;2023-05-10T12:57:11;7.82;;;1.90;;
78871;SDS011;68247;43.514;1.502;2023-05-10T12:59:36;4.47;;;1.50;;
78871;SDS011;68247;43.514;1.502;2023-05-10T13:02:01;3.80;;;1.30;;
78871;SDS011;68247;43.514;1.502;2023-05-10T13:04:27;4.50;;;1.33;;
78871;SDS011;68247;43.514;1.502;2023-05-10T13:06:52;2.90;;;1.03;;
78871;SDS011;68247;43.514;1.502;2023-05-10T13:09:18;4.47;;;1.30;;
78871;SDS011;68247;43.514;1.502;2023-05-10T13:11:43;3.80;;;1.25;;
78871;SDS011;68247;43.514;1.502;2023-05-10T13:14:10;4.20;;;1.60;;
78871;SDS011;68247;43.514;1.502;2023-05-10T13:16:35;4.37;;;1.53;;
78871;SDS011;68247;43.514;1.502;2023-05-10T13:19:01;3.97;;;1.50;;
78871;SDS011;68247;43.514;1.502;2023-05-10T13:21:28;3.83;;;1.07;;
78871;SDS011;68247;43.514;1.502;2023-05-10T13:23:53;4.55;;;1.52;;
78871;SDS011;68247;43.514;1.502;2023-05-10T13:26:18;4.67;;;1.53;;
78871;SDS011;68247;43.514;1.502;2023-05-10T13:28:44;6.45;;;1.60;;
78871;SDS011;68247;43.514;1.502;2023-05-10T13:31:10;4.55;;;1.60;;
78871;SDS011;68247;43.514;1.502;2023-05-10T13:33:37;5.03;;;1.30;;
78871;SDS011;68247;43.514;1.502;2023-05-10T13:36:03;5.30;;;1.93;;
78871;SDS011;68247;43.514;1.502;2023-05-10T13:38:28;5.87;;;1.70;;
78871;SDS011;68247;43.514;1.502;2023-05-10T13:40:54;4.43;;;1.57;;
78871;SDS011;68247;43.514;1.502;2023-05-10T13:43:19;3.47;;;0.90;;
78871;SDS011;68247;43.514;1.502;2023-05-10T13:45:45;4.83;;;1.73;;
78871;SDS011;68247;43.514;1.502;2023-05-10T13:48:10;5.93;;;1.20;;
78871;SDS011;68247;43.514;1.502;2023-05-10T13:50:35;4.47;;;1.60;;
78871;SDS011;68247;43.514;1.502;2023-05-10T13:53:01;5.50;;;1.10;;
78871;SDS011;68247;43.514;1.502;2023-05-10T13:55:26;4.78;;;1.30;;
78871;SDS011;68247;43.514;1.502;2023-05-10T13:57:52;4.00;;;1.60;;
78871;SDS011;68247;43.514;1.502;2023-05-10T14:00:17;5.10;;;1.40;;
78871;SDS011;68247;43.514;1.502;2023-05-10T14:02:43;4.53;;;1.20;;
78871;SDS011;68247;43.514;1.502;2023-05-10T14:05:08;4.57;;;1.40;;
78871;SDS011;68247;43.514;1.502;2023-05-10T14:07:34;4.30;;;1.20;;
78871;SDS011;68247;43.514;1.502;2023-05-10T14:09:59;8.40;;;1.90;;
78871;SDS011;68247;43.514;1.502;2023-05-10T14:12:25;7.32;;;3.08;;
78871;SDS011;68247;43.514;1.502;2023-05-10T14:14:50;4.77;;;1.50;;
78871;SDS011;68247;43.514;1.502;2023-05-10T14:17:17;5.47;;;1.73;;
78871;SDS011;68247;43.514;1.502;2023-05-10T14:19:42;5.43;;;1.58;;
78871;SDS011;68247;43.514;1.502;2023-05-10T14:22:08;6.43;;;1.90;;
78871;SDS011;68247;43.514;1.502;2023-05-10T14:24:33;5.80;;;1.50;;
78871;SDS011;68247;43.514;1.502;2023-05-10T14:26:59;4.87;;;1.33;;
78871;SDS011;68247;43.514;1.502;2023-05-10T14:29:25;4.63;;;1.33;;
78871;SDS011;68247;43.514;1.502;2023-05-10T14:31:50;5.43;;;1.20;;
78871;SDS011;68247;43.514;1.502;2023-05-10T14:34:16;5.45;;;1.60;;
78871;SDS011;68247;43.514;1.502;2023-05-10T14:36:41;4.50;;;1.23;;
78871;SDS011;68247;43.514;1.502;2023-05-10T14:39:06;3.23;;;0.90;;
78871;SDS011;68247;43.514;1.502;2023-05-10T14:41:33;4.68;;;1.50;;
78871;SDS011;68247;43.514;1.502;2023-05-10T14:43:58;4.77;;;0.80;;
78871;SDS011;68247;43.514;1.502;2023-05-10T14:46:23;4.13;;;1.03;;
78871;SDS011;68247;43.514;1.502;2023-05-10T14:48:49;5.70;;;1.20;;
78871;SDS011;68247;43.514;1.502;2023-05-10T14:51:14;3.00;;;1.10;;
78871;SDS011;68247;43.514;1.502;2023-05-10T14:53:40;4.10;;;1.20;;
78871;SDS011;68247;43.514;1.502;2023-05-10T14:56:05;4.47;;;1.50;;
78871;SDS011;68247;43.514;1.502;2023-05-10T14:58:31;4.65;;;1.52;;
78871;SDS011;68247;43.514;1.502;2023-05-10T15:00:57;5.70;;;1.70;;
78871;SDS011;68247;43.514;1.502;2023-05-10T15:03:22;7.13;;;1.48;;
78871;SDS011;68247;43.514;1.502;2023-05-10T15:05:48;6.03;;;1.80;;
78871;SDS011;68247;43.514;1.502;2023-05-10T15:08:13;5.60;;;1.60;;
78871;SDS011;68247;43.514;1.502;2023-05-10T15:10:40;5.00;;;1.70;;
78871;SDS011;68247;43.514;1.502;2023-05-10T15:13:05;6.00;;;1.80;;
78871;SDS011;68247;43.514;1.502;2023-05-10T15:15:31;7.60;;;1.90;;
78871;SDS011;68247;43.514;1.502;2023-05-10T15:17:56;6.00;;;1.73;;
78871;SDS011;68247;43.514;1.502;2023-05-10T15:20:21;4.67;;;1.60;;
78871;SDS011;68247;43.514;1.502;2023-05-10T15:22:47;5.83;;;1.83;;